sensor_id;sensor_type;location;lat;lon;timestamp;pressure;altitude;pressure_sealevel;temperature;humidity
83557;BME280;73523;55.740;13.276;2024-03-02T00:00:10;100023.56;;;23.72;30.83
83557;BME280;73523;55.740;13.276;2024-03-02T00:02:44;100018.03;;;23.72;30.53
83557;BME280;73523;55.740;13.276;2024-03-02T00:05:12;100010.84;;;23.70;30.78
83557;BME280;73523;55.740;13.276;2024-03-02T00:07:40;100013.59;;;23.70;30.84
83557;BME280;73523;55.740;13.276;2024-03-02T00:10:09;100008.91;;;23.71;30.42
83557;BME280;73523;55.740;13.276;2024-03-02T00:12:38;100008.34;;;23.69;30.75
83557;BME280;73523;55.740;13.276;2024-03-02T00:17:42;100005.59;;;23.69;30.79
83557;BME280;73523;55.740;13.276;2024-03-02T00:20:09;100001.16;;;23.68;30.35
83557;BME280;73523;55.740;13.276;2024-03-02T00:22:35;99995.94;;;23.66;30.80
83557;BME280;73523;55.740;13.276;2024-03-02T00:25:03;99992.63;;;23.64;30.80
83557;BME280;73523;55.740;13.276;2024-03-02T00:27:28;100000.09;;;23.64;31.00
83557;BME280;73523;55.740;13.276;2024-03-02T00:29:54;100003.97;;;23.63;30.49
83557;BME280;73523;55.740;13.276;2024-03-02T00:32:20;99990.69;;;23.60;30.55
83557;BME280;73523;55.740;13.276;2024-03-02T00:34:48;99995.41;;;23.59;30.88
83557;BME280;73523;55.740;13.276;2024-03-02T00:37:13;99998.16;;;23.59;30.69
83557;BME280;73523;55.740;13.276;2024-03-02T00:39:39;99991.25;;;23.57;30.82
83557;BME280;73523;55.740;13.276;2024-03-02T00:42:05;99998.72;;;23.56;30.70
83557;BME280;73523;55.740;13.276;2024-03-02T00:44:33;99991.84;;;23.54;30.97
83557;BME280;73523;55.740;13.276;2024-03-02T00:47:00;99989.91;;;23.54;30.80
83557;BME280;73523;55.740;13.276;2024-03-02T00:49:26;99999.31;;;23.53;30.67
83557;BME280;73523;55.740;13.276;2024-03-02T00:51:54;99995.41;;;23.49;31.07
83557;BME280;73523;55.740;13.276;2024-03-02T00:54:25;99989.63;;;23.51;30.65
83557;BME280;73523;55.740;13.276;2024-03-02T00:56:51;99986.56;;;23.47;31.03
83557;BME280;73523;55.740;13.276;2024-03-02T00:59:17;99984.34;;;23.44;30.79
83557;BME280;73523;55.740;13.276;2024-03-02T01:01:43;99989.59;;;23.46;30.59
83557;BME280;73523;55.740;13.276;2024-03-02T01:04:09;99979.09;;;23.43;30.92
83557;BME280;73523;55.740;13.276;2024-03-02T01:06:37;99975.53;;;23.42;30.83
83557;BME280;73523;55.740;13.276;2024-03-02T01:09:03;99976.34;;;23.43;31.18
83557;BME280;73523;55.740;13.276;2024-03-02T01:11:29;99970.00;;;23.42;30.65
83557;BME280;73523;55.740;13.276;2024-03-02T01:13:55;99979.09;;;23.43;30.76
83557;BME280;73523;55.740;13.276;2024-03-02T01:16:20;99974.72;;;23.42;30.99
83557;BME280;73523;55.740;13.276;2024-03-02T01:18:45;99973.88;;;23.41;30.83
83557;BME280;73523;55.740;13.276;2024-03-02T01:21:11;99973.03;;;23.41;30.76
83557;BME280;73523;55.740;13.276;2024-03-02T01:23:36;99973.88;;;23.41;30.68
83557;BME280;73523;55.740;13.276;2024-03-02T01:26:02;99968.34;;;23.41;30.99
83557;BME280;73523;55.740;13.276;2024-03-02T01:28:27;99974.97;;;23.40;30.76
83557;BME280;73523;55.740;13.276;2024-03-02T01:30:52;99963.09;;;23.40;30.93
83557;BME280;73523;55.740;13.276;2024-03-02T01:33:19;99957.00;;;23.38;30.63
83557;BME280;73523;55.740;13.276;2024-03-02T01:35:45;99964.47;;;23.37;30.94
83557;BME280;73523;55.740;13.276;2024-03-02T01:38:10;99955.63;;;23.35;30.88
83557;BME280;73523;55.740;13.276;2024-03-02T01:40:36;99958.69;;;23.33;31.14
83557;BME280;73523;55.740;13.276;2024-03-02T01:43:02;99958.94;;;23.32;31.03
83557;BME280;73523;55.740;13.276;2024-03-02T01:45:28;99962.03;;;23.30;31.18
83557;BME280;73523;55.740;13.276;2024-03-02T01:47:53;99948.75;;;23.27;30.88
83557;BME280;73523;55.740;13.276;2024-03-02T01:50:29;99953.47;;;23.27;31.17
83557;BME280;73523;55.740;13.276;2024-03-02T01:52:56;99944.63;;;23.25;30.98
83557;BME280;73523;55.740;13.276;2024-03-02T01:55:21;99944.88;;;23.23;31.06
83557;BME280;73523;55.740;13.276;2024-03-02T01:57:48;99937.16;;;23.25;30.91
83557;BME280;73523;55.740;13.276;2024-03-02T02:00:14;99939.91;;;23.25;31.20
83557;BME280;73523;55.740;13.276;2024-03-02T02:02:40;99934.66;;;23.24;31.12
83557;BME280;73523;55.740;13.276;2024-03-02T02:05:05;99931.34;;;23.22;31.14
83557;BME280;73523;55.740;13.276;2024-03-02T02:07:31;99921.66;;;23.19;31.14
83557;BME280;73523;55.740;13.276;2024-03-02T02:09:56;99922.50;;;23.20;31.21
83557;BME280;73523;55.740;13.276;2024-03-02T02:12:22;99916.44;;;23.18;31.18
83557;BME280;73523;55.740;13.276;2024-03-02T02:14:48;99914.19;;;23.20;31.03
83557;BME280;73523;55.740;13.276;2024-03-02T02:17:15;99909.78;;;23.19;30.87
83557;BME280;73523;55.740;13.276;2024-03-02T02:19:41;99906.75;;;23.20;31.01
83557;BME280;73523;55.740;13.276;2024-03-02T02:22:06;99907.56;;;23.21;30.97
83557;BME280;73523;55.740;13.276;2024-03-02T02:24:32;99900.09;;;23.21;30.95
83557;BME280;73523;55.740;13.276;2024-03-02T02:26:57;99902.03;;;23.21;30.91
83557;BME280;73523;55.740;13.276;2024-03-02T02:29:22;99896.50;;;23.21;31.04
83557;BME280;73523;55.740;13.276;2024-03-02T02:31:47;99902.03;;;23.21;31.07
83557;BME280;73523;55.740;13.276;2024-03-02T02:34:14;99897.34;;;23.21;31.00
83557;BME280;73523;55.740;13.276;2024-03-02T02:36:41;99900.38;;;23.20;31.14
83557;BME280;73523;55.740;13.276;2024-03-02T02:39:10;99896.78;;;23.19;31.14
83557;BME280;73523;55.740;13.276;2024-03-02T02:41:37;99890.44;;;23.19;31.03
83557;BME280;73523;55.740;13.276;2024-03-02T02:44:02;99902.31;;;23.19;30.88
83557;BME280;73523;55.740;13.276;2024-03-02T02:46:27;99899.03;;;23.17;30.85
83557;BME280;73523;55.740;13.276;2024-03-02T02:48:53;99892.94;;;23.15;30.85
83557;BME280;73523;55.740;13.276;2024-03-02T02:51:19;99888.81;;;23.13;31.03
83557;BME280;73523;55.740;13.276;2024-03-02T02:53:44;99890.75;;;23.12;30.93
83557;BME280;73523;55.740;13.276;2024-03-02T02:56:09;99896.28;;;23.12;30.90
83557;BME280;73523;55.740;13.276;2024-03-02T02:58:35;99896.56;;;23.11;31.20
83557;BME280;73523;55.740;13.276;2024-03-02T03:01:00;99886.59;;;23.10;30.92
83557;BME280;73523;55.740;13.276;2024-03-02T03:03:26;99885.78;;;23.09;31.14
83557;BME280;73523;55.740;13.276;2024-03-02T03:05:51;99880.25;;;23.09;31.20
83557;BME280;73523;55.740;13.276;2024-03-02T03:08:16;99884.41;;;23.07;30.97
83557;BME280;73523;55.740;13.276;2024-03-02T03:10:42;99879.69;;;23.07;31.06
83557;BME280;73523;55.740;13.276;2024-03-02T03:13:08;99869.47;;;23.08;31.16
83557;BME280;73523;55.740;13.276;2024-03-02T03:15:36;99877.75;;;23.08;31.34
83557;BME280;73523;55.740;13.276;2024-03-02T03:18:03;99879.69;;;23.07;31.06
83557;BME280;73523;55.740;13.276;2024-03-02T03:20:29;99880.53;;;23.08;31.36
83557;BME280;73523;55.740;13.276;2024-03-02T03:22:55;99872.53;;;23.06;30.91
83557;BME280;73523;55.740;13.276;2024-03-02T03:25:20;99873.88;;;23.09;31.49
83557;BME280;73523;55.740;13.276;2024-03-02T03:27:45;99868.34;;;23.09;30.96
83557;BME280;73523;55.740;13.276;2024-03-02T03:30:11;99873.06;;;23.08;30.93
83557;BME280;73523;55.740;13.276;2024-03-02T03:32:36;99866.69;;;23.08;31.27
83557;BME280;73523;55.740;13.276;2024-03-02T03:35:03;99864.25;;;23.06;30.96
83557;BME280;73523;55.740;13.276;2024-03-02T03:37:28;99868.09;;;23.10;31.18
83557;BME280;73523;55.740;13.276;2024-03-02T03:39:58;99861.72;;;23.10;31.03
83557;BME280;73523;55.740;13.276;2024-03-02T03:42:23;99867.25;;;23.10;31.22
83557;BME280;73523;55.740;13.276;2024-03-02T03:44:48;99866.16;;;23.11;31.27
83557;BME280;73523;55.740;13.276;2024-03-02T03:47:13;99860.63;;;23.11;31.25
83557;BME280;73523;55.740;13.276;2024-03-02T03:49:39;99866.97;;;23.11;31.34
83557;BME280;73523;55.740;13.276;2024-03-02T03:52:04;99860.91;;;23.09;31.21
83557;BME280;73523;55.740;13.276;2024-03-02T03:54:29;99873.59;;;23.10;31.03
83557;BME280;73523;55.740;13.276;2024-03-02T03:56:55;99870.03;;;23.10;31.07
83557;BME280;73523;55.740;13.276;2024-03-02T03:59:21;99870.56;;;23.07;31.09
83557;BME280;73523;55.740;13.276;2024-03-02T04:01:46;99875.31;;;23.06;31.61
83557;BME280;73523;55.740;13.276;2024-03-02T04:04:11;99876.69;;;23.04;31.40
83557;BME280;73523;55.740;13.276;2024-03-02T04:06:37;99872.81;;;22.99;31.63
83557;BME280;73523;55.740;13.276;2024-03-02T04:09:02;99867.56;;;22.98;31.63
83557;BME280;73523;55.740;13.276;2024-03-02T04:11:29;99865.09;;;22.96;31.73
83557;BME280;73523;55.740;13.276;2024-03-02T04:13:55;99869.78;;;22.96;31.43
83557;BME280;73523;55.740;13.276;2024-03-02T04:16:20;99867.03;;;22.96;31.65
83557;BME280;73523;55.740;13.276;2024-03-02T04:18:46;99858.47;;;22.97;31.62
83557;BME280;73523;55.740;13.276;2024-03-02T04:21:11;99874.47;;;23.01;31.25
83557;BME280;73523;55.740;13.276;2024-03-02T04:23:36;99867.84;;;23.02;31.08
83557;BME280;73523;55.740;13.276;2024-03-02T04:26:02;99871.16;;;23.04;31.43
83557;BME280;73523;55.740;13.276;2024-03-02T04:28:27;99867.84;;;23.02;31.41
83557;BME280;73523;55.740;13.276;2024-03-02T04:30:52;99877.25;;;23.06;31.42
83557;BME280;73523;55.740;13.276;2024-03-02T04:33:18;99879.69;;;23.07;31.16
83557;BME280;73523;55.740;13.276;2024-03-02T04:35:43;99873.34;;;23.07;31.35
83557;BME280;73523;55.740;13.276;2024-03-02T04:38:08;99871.41;;;23.07;31.41
83557;BME280;73523;55.740;13.276;2024-03-02T04:40:34;99866.69;;;23.08;31.36
83557;BME280;73523;55.740;13.276;2024-03-02T04:42:59;99875.00;;;23.08;31.57
83557;BME280;73523;55.740;13.276;2024-03-02T04:45:24;99873.34;;;23.07;31.09
83557;BME280;73523;55.740;13.276;2024-03-02T04:47:50;99870.03;;;23.10;31.17
83557;BME280;73523;55.740;13.276;2024-03-02T04:50:15;99868.09;;;23.10;31.37
83557;BME280;73523;55.740;13.276;2024-03-02T04:52:40;99871.69;;;23.11;31.19
83557;BME280;73523;55.740;13.276;2024-03-02T04:55:06;99880.25;;;23.09;31.21
83557;BME280;73523;55.740;13.276;2024-03-02T04:57:49;99877.47;;;23.09;31.37
83557;BME280;73523;55.740;13.276;2024-03-02T05:00:16;99876.38;;;23.10;31.42
83557;BME280;73523;55.740;13.276;2024-03-02T05:02:41;99879.69;;;23.12;31.51
83557;BME280;73523;55.740;13.276;2024-03-02T05:05:06;99874.16;;;23.12;31.49
83557;BME280;73523;55.740;13.276;2024-03-02T05:07:32;99875.00;;;23.13;31.40
83557;BME280;73523;55.740;13.276;2024-03-02T05:09:57;99876.94;;;23.12;31.35
83557;BME280;73523;55.740;13.276;2024-03-02T05:12:22;99866.97;;;23.11;31.42
83557;BME280;73523;55.740;13.276;2024-03-02T05:15:07;99864.50;;;23.10;31.52
83557;BME280;73523;55.740;13.276;2024-03-02T05:17:36;99867.81;;;23.12;31.70
83557;BME280;73523;55.740;13.276;2024-03-02T05:20:01;99865.84;;;23.17;31.90
83557;BME280;73523;55.740;13.276;2024-03-02T05:22:27;99856.13;;;23.20;31.83
83557;BME280;73523;55.740;13.276;2024-03-02T05:24:52;99868.56;;;23.22;33.27
83557;BME280;73523;55.740;13.276;2024-03-02T05:27:17;99861.94;;;23.23;32.68
83557;BME280;73523;55.740;13.276;2024-03-02T05:29:43;99866.91;;;23.26;33.39
83557;BME280;73523;55.740;13.276;2024-03-02T05:32:08;99866.88;;;23.31;34.42
83557;BME280;73523;55.740;13.276;2024-03-02T05:34:33;99860.50;;;23.36;34.52
83557;BME280;73523;55.740;13.276;2024-03-02T05:37:00;99860.16;;;23.43;33.78
83557;BME280;73523;55.740;13.276;2024-03-02T05:39:26;99862.28;;;23.66;33.60
83557;BME280;73523;55.740;13.276;2024-03-02T05:41:51;99859.16;;;23.78;32.79
83557;BME280;73523;55.740;13.276;2024-03-02T05:44:16;99849.69;;;23.84;32.69
83557;BME280;73523;55.740;13.276;2024-03-02T05:46:42;99859.91;;;23.88;32.62
83557;BME280;73523;55.740;13.276;2024-03-02T05:49:08;99860.16;;;23.92;32.43
83557;BME280;73523;55.740;13.276;2024-03-02T05:51:35;99861.78;;;23.93;32.40
83557;BME280;73523;55.740;13.276;2024-03-02T05:54:00;99857.91;;;23.94;32.52
83557;BME280;73523;55.740;13.276;2024-03-02T05:56:25;99862.34;;;23.95;32.07
83557;BME280;73523;55.740;13.276;2024-03-02T05:58:50;99865.94;;;23.95;32.10
83557;BME280;73523;55.740;13.276;2024-03-02T06:01:34;99873.41;;;23.95;31.89
83557;BME280;73523;55.740;13.276;2024-03-02T06:03:59;99872.59;;;23.94;31.71
83557;BME280;73523;55.740;13.276;2024-03-02T06:06:25;99862.63;;;23.93;31.88
83557;BME280;73523;55.740;13.276;2024-03-02T06:08:51;99873.69;;;23.93;31.64
83557;BME280;73523;55.740;13.276;2024-03-02T06:11:16;99872.34;;;23.91;31.88
83557;BME280;73523;55.740;13.276;2024-03-02T06:13:42;99869.59;;;23.91;31.70
83557;BME280;73523;55.740;13.276;2024-03-02T06:16:07;99869.88;;;23.89;32.03
83557;BME280;73523;55.740;13.276;2024-03-02T06:18:33;99871.22;;;23.92;31.66
83557;BME280;73523;55.740;13.276;2024-03-02T06:20:59;99866.75;;;23.96;31.75
83557;BME280;73523;55.740;13.276;2024-03-02T06:23:26;99877.28;;;23.99;31.78
83557;BME280;73523;55.740;13.276;2024-03-02T06:25:51;99878.63;;;24.01;31.68
83557;BME280;73523;55.740;13.276;2024-03-02T06:28:16;99870.03;;;24.03;31.30
83557;BME280;73523;55.740;13.276;2024-03-02T06:30:42;99875.53;;;24.08;31.42
83557;BME280;73523;55.740;13.276;2024-03-02T06:33:08;99879.38;;;24.12;31.21
83557;BME280;73523;55.740;13.276;2024-03-02T06:35:33;99881.53;;;24.15;31.23
83557;BME280;73523;55.740;13.276;2024-03-02T06:38:00;99870.72;;;24.19;31.01
83557;BME280;73523;55.740;13.276;2024-03-02T06:40:25;99884.00;;;24.22;30.83
83557;BME280;73523;55.740;13.276;2024-03-02T06:42:50;99876.56;;;24.22;30.89
83557;BME280;73523;55.740;13.276;2024-03-02T06:45:16;99889.00;;;24.25;30.99
83557;BME280;73523;55.740;13.276;2024-03-02T06:47:41;99887.56;;;24.27;30.59
83557;BME280;73523;55.740;13.276;2024-03-02T06:50:07;99880.91;;;24.28;30.84
83557;BME280;73523;55.740;13.276;2024-03-02T06:52:32;99879.78;;;24.29;30.61
83557;BME280;73523;55.740;13.276;2024-03-02T06:54:58;99883.09;;;24.31;30.78
83557;BME280;73523;55.740;13.276;2024-03-02T06:57:23;99880.34;;;24.31;30.73
83557;BME280;73523;55.740;13.276;2024-03-02T06:59:49;99882.84;;;24.28;30.59
83557;BME280;73523;55.740;13.276;2024-03-02T07:02:16;99885.06;;;24.31;30.60
83557;BME280;73523;55.740;13.276;2024-03-02T07:04:42;99890.31;;;24.32;30.65
83557;BME280;73523;55.740;13.276;2024-03-02T07:07:07;99897.50;;;24.33;30.39
83557;BME280;73523;55.740;13.276;2024-03-02T07:09:32;99901.94;;;24.34;30.61
83557;BME280;73523;55.740;13.276;2024-03-02T07:11:58;99898.31;;;24.34;30.58
83557;BME280;73523;55.740;13.276;2024-03-02T07:14:23;99903.59;;;24.35;30.57
83557;BME280;73523;55.740;13.276;2024-03-02T07:17:08;99908.84;;;24.37;30.19
83557;BME280;73523;55.740;13.276;2024-03-02T07:19:35;99903.28;;;24.37;30.56
83557;BME280;73523;55.740;13.276;2024-03-02T07:22:00;99899.41;;;24.38;30.56
83557;BME280;73523;55.740;13.276;2024-03-02T07:24:25;99901.06;;;24.39;30.68
83557;BME280;73523;55.740;13.276;2024-03-02T07:26:50;99901.84;;;24.39;30.27
83557;BME280;73523;55.740;13.276;2024-03-02T07:29:16;99903.00;;;24.38;30.30
83557;BME280;73523;55.740;13.276;2024-03-02T07:31:41;99908.53;;;24.38;30.27
83557;BME280;73523;55.740;13.276;2024-03-02T07:34:07;99914.09;;;24.38;30.03
83557;BME280;73523;55.740;13.276;2024-03-02T07:36:32;99906.06;;;24.37;30.31
83557;BME280;73523;55.740;13.276;2024-03-02T07:38:57;99903.28;;;24.37;30.57
83557;BME280;73523;55.740;13.276;2024-03-02T07:41:23;99908.84;;;24.37;30.48
83557;BME280;73523;55.740;13.276;2024-03-02T07:43:48;99914.66;;;24.35;30.29
83557;BME280;73523;55.740;13.276;2024-03-02T07:46:14;99909.69;;;24.32;30.37
83557;BME280;73523;55.740;13.276;2024-03-02T07:48:39;99909.69;;;24.32;30.80
83557;BME280;73523;55.740;13.276;2024-03-02T07:51:05;99913.56;;;24.31;30.82
83557;BME280;73523;55.740;13.276;2024-03-02T07:53:30;99911.91;;;24.30;30.54
83557;BME280;73523;55.740;13.276;2024-03-02T07:55:56;99918.28;;;24.31;30.50
83557;BME280;73523;55.740;13.276;2024-03-02T07:58:26;99914.69;;;24.30;30.51
83557;BME280;73523;55.740;13.276;2024-03-02T08:00:52;99914.97;;;24.29;30.61
83557;BME280;73523;55.740;13.276;2024-03-02T08:03:17;99913.63;;;24.26;30.87
83557;BME280;73523;55.740;13.276;2024-03-02T08:05:44;99905.31;;;24.26;30.89
83557;BME280;73523;55.740;13.276;2024-03-02T08:08:09;99913.63;;;24.26;31.18
83557;BME280;73523;55.740;13.276;2024-03-02T08:10:35;99913.63;;;24.26;31.08
83557;BME280;73523;55.740;13.276;2024-03-02T08:13:01;99918.03;;;24.27;31.35
83557;BME280;73523;55.740;13.276;2024-03-02T08:15:26;99923.88;;;24.26;31.44
83557;BME280;73523;55.740;13.276;2024-03-02T08:17:51;99932.19;;;24.26;31.19
83557;BME280;73523;55.740;13.276;2024-03-02T08:20:17;99923.88;;;24.26;31.23
83557;BME280;73523;55.740;13.276;2024-03-02T08:22:42;99936.91;;;24.25;31.34
83557;BME280;73523;55.740;13.276;2024-03-02T08:25:08;99924.19;;;24.24;31.27
83557;BME280;73523;55.740;13.276;2024-03-02T08:27:33;99936.91;;;24.25;31.15
83557;BME280;73523;55.740;13.276;2024-03-02T08:29:59;99934.97;;;24.26;30.99
83557;BME280;73523;55.740;13.276;2024-03-02T08:32:24;99931.66;;;24.24;31.16
83557;BME280;73523;55.740;13.276;2024-03-02T08:34:49;99941.63;;;24.25;31.10
83557;BME280;73523;55.740;13.276;2024-03-02T08:37:15;99932.47;;;24.24;31.06
83557;BME280;73523;55.740;13.276;2024-03-02T08:39:40;99928.06;;;24.23;31.31
83557;BME280;73523;55.740;13.276;2024-03-02T08:42:06;99926.41;;;24.22;31.06
83557;BME280;73523;55.740;13.276;2024-03-02T08:44:31;99926.66;;;24.21;31.13
83557;BME280;73523;55.740;13.276;2024-03-02T08:46:56;99933.84;;;24.22;31.26
83557;BME280;73523;55.740;13.276;2024-03-02T08:49:22;99932.47;;;24.19;31.35
83557;BME280;73523;55.740;13.276;2024-03-02T08:51:47;99930.00;;;24.18;30.97
83557;BME280;73523;55.740;13.276;2024-03-02T08:54:20;99929.16;;;24.17;31.47
83557;BME280;73523;55.740;13.276;2024-03-02T08:56:46;99929.44;;;24.16;31.34
83557;BME280;73523;55.740;13.276;2024-03-02T08:59:11;99936.13;;;24.15;31.28
83557;BME280;73523;55.740;13.276;2024-03-02T09:01:36;99928.94;;;24.14;31.09
83557;BME280;73523;55.740;13.276;2024-03-02T09:04:06;99926.44;;;24.12;31.43
83557;BME280;73523;55.740;13.276;2024-03-02T09:06:34;99928.69;;;24.10;31.21
83557;BME280;73523;55.740;13.276;2024-03-02T09:08:59;99929.50;;;24.11;31.30
83557;BME280;73523;55.740;13.276;2024-03-02T09:11:25;99939.75;;;24.10;31.21
83557;BME280;73523;55.740;13.276;2024-03-02T09:13:50;99935.63;;;24.08;31.23
83557;BME280;73523;55.740;13.276;2024-03-02T09:16:16;99925.38;;;24.08;31.52
83557;BME280;73523;55.740;13.276;2024-03-02T09:18:41;99939.22;;;24.08;31.45
83557;BME280;73523;55.740;13.276;2024-03-02T09:21:06;99939.22;;;24.08;31.34
83557;BME280;73523;55.740;13.276;2024-03-02T09:23:33;99941.97;;;24.08;31.51
83557;BME280;73523;55.740;13.276;2024-03-02T09:25:59;99934.50;;;24.09;31.53
83557;BME280;73523;55.740;13.276;2024-03-02T09:28:24;99937.56;;;24.07;31.20
83557;BME280;73523;55.740;13.276;2024-03-02T09:30:49;99947.50;;;24.08;31.25
83557;BME280;73523;55.740;13.276;2024-03-02T09:33:15;99946.97;;;24.06;31.57
83557;BME280;73523;55.740;13.276;2024-03-02T09:35:40;99945.84;;;24.07;31.33
83557;BME280;73523;55.740;13.276;2024-03-02T09:38:05;99947.81;;;24.06;31.50
83557;BME280;73523;55.740;13.276;2024-03-02T09:40:31;99945.31;;;24.05;31.53
83557;BME280;73523;55.740;13.276;2024-03-02T09:42:57;99944.47;;;24.04;31.66
83557;BME280;73523;55.740;13.276;2024-03-02T09:45:24;99945.59;;;24.03;31.74
83557;BME280;73523;55.740;13.276;2024-03-02T09:47:50;99945.09;;;24.01;31.36
83557;BME280;73523;55.740;13.276;2024-03-02T09:50:15;99946.47;;;23.99;31.75
83557;BME280;73523;55.740;13.276;2024-03-02T09:52:48;99950.91;;;24.00;31.41
83557;BME280;73523;55.740;13.276;2024-03-02T09:55:13;99953.13;;;23.98;31.67
83557;BME280;73523;55.740;13.276;2024-03-02T09:57:40;99952.59;;;23.96;31.98
83557;BME280;73523;55.740;13.276;2024-03-02T10:00:08;99955.91;;;23.93;32.11
83557;BME280;73523;55.740;13.276;2024-03-02T10:02:33;99957.56;;;23.94;31.65
83557;BME280;73523;55.740;13.276;2024-03-02T10:04:59;99954.53;;;23.95;32.01
83557;BME280;73523;55.740;13.276;2024-03-02T10:07:24;99963.94;;;23.94;32.15
83557;BME280;73523;55.740;13.276;2024-03-02T10:09:49;99960.63;;;23.92;31.96
83557;BME280;73523;55.740;13.276;2024-03-02T10:12:17;99958.44;;;23.89;32.02
83557;BME280;73523;55.740;13.276;2024-03-02T10:14:43;99962.03;;;23.90;32.10
83557;BME280;73523;55.740;13.276;2024-03-02T10:17:10;99962.03;;;23.90;31.87
83557;BME280;73523;55.740;13.276;2024-03-02T10:19:36;99957.63;;;23.89;31.86
83557;BME280;73523;55.740;13.276;2024-03-02T10:22:06;99955.41;;;23.86;31.86
83557;BME280;73523;55.740;13.276;2024-03-02T10:24:44;99953.75;;;23.85;32.19
83557;BME280;73523;55.740;13.276;2024-03-02T10:27:23;99954.31;;;23.87;32.04
83557;BME280;73523;55.740;13.276;2024-03-02T10:29:49;99951.81;;;23.85;32.00
83557;BME280;73523;55.740;13.276;2024-03-02T10:32:15;99968.44;;;23.85;31.99
83557;BME280;73523;55.740;13.276;2024-03-02T10:34:42;99952.09;;;23.84;31.86
83557;BME280;73523;55.740;13.276;2024-03-02T10:37:08;99953.22;;;23.83;31.93
83557;BME280;73523;55.740;13.276;2024-03-02T10:39:34;99957.91;;;23.82;32.00
83557;BME280;73523;55.740;13.276;2024-03-02T10:42:05;99952.66;;;23.81;32.31
83557;BME280;73523;55.740;13.276;2024-03-02T10:44:31;99947.41;;;23.79;32.32
83557;BME280;73523;55.740;13.276;2024-03-02T10:47:00;99956.53;;;23.80;31.94
83557;BME280;73523;55.740;13.276;2024-03-02T10:49:26;99949.06;;;23.80;32.07
83557;BME280;73523;55.740;13.276;2024-03-02T10:51:52;99949.38;;;23.79;32.01
83557;BME280;73523;55.740;13.276;2024-03-02T10:54:18;99955.44;;;23.81;31.94
83557;BME280;73523;55.740;13.276;2024-03-02T10:56:44;99949.63;;;23.82;31.85
83557;BME280;73523;55.740;13.276;2024-03-02T10:59:24;99947.97;;;23.81;32.06
83557;BME280;73523;55.740;13.276;2024-03-02T11:01:55;99952.66;;;23.81;32.02
83557;BME280;73523;55.740;13.276;2024-03-02T11:04:24;99955.44;;;23.81;32.22
83557;BME280;73523;55.740;13.276;2024-03-02T11:06:50;99963.44;;;23.82;32.20
83557;BME280;73523;55.740;13.276;2024-03-02T11:09:18;99966.22;;;23.82;32.07
83557;BME280;73523;55.740;13.276;2024-03-02T11:11:49;99966.22;;;23.82;31.97
83557;BME280;73523;55.740;13.276;2024-03-02T11:14:21;99963.44;;;23.82;32.02
83557;BME280;73523;55.740;13.276;2024-03-02T11:16:49;99960.13;;;23.80;32.06
83557;BME280;73523;55.740;13.276;2024-03-02T11:19:16;99959.56;;;23.83;32.24
83557;BME280;73523;55.740;13.276;2024-03-02T11:21:42;99960.97;;;23.81;31.88
83557;BME280;73523;55.740;13.276;2024-03-02T11:26:49;99963.44;;;23.82;31.82
83557;BME280;73523;55.740;13.276;2024-03-02T11:32:16;99963.72;;;23.81;31.77
83557;BME280;73523;55.740;13.276;2024-03-02T11:34:44;99961.25;;;23.79;31.92
83557;BME280;73523;55.740;13.276;2024-03-02T11:37:15;99962.94;;;23.75;32.19
83557;BME280;73523;55.740;13.276;2024-03-02T11:39:43;99956.88;;;23.73;31.75
83557;BME280;73523;55.740;13.276;2024-03-02T11:42:09;99953.56;;;23.71;32.13
83557;BME280;73523;55.740;13.276;2024-03-02T11:44:37;99956.88;;;23.73;32.19
83557;BME280;73523;55.740;13.276;2024-03-02T11:47:05;99964.06;;;23.74;31.80
83557;BME280;73523;55.740;13.276;2024-03-02T11:49:40;99960.19;;;23.75;32.18
83557;BME280;73523;55.740;13.276;2024-03-02T11:52:07;99967.66;;;23.75;31.75
83557;BME280;73523;55.740;13.276;2024-03-02T11:54:33;99963.78;;;23.76;31.89
83557;BME280;73523;55.740;13.276;2024-03-02T11:57:02;99963.78;;;23.76;31.82
83557;BME280;73523;55.740;13.276;2024-03-02T11:59:29;99960.47;;;23.74;32.04
83557;BME280;73523;55.740;13.276;2024-03-02T12:01:54;99959.34;;;23.75;31.96
83557;BME280;73523;55.740;13.276;2024-03-02T12:04:21;99967.66;;;23.75;32.03
83557;BME280;73523;55.740;13.276;2024-03-02T12:06:53;99966.00;;;23.74;32.02
83557;BME280;73523;55.740;13.276;2024-03-02T12:09:20;99972.38;;;23.74;32.13
83557;BME280;73523;55.740;13.276;2024-03-02T12:11:45;99973.75;;;23.72;31.99
83557;BME280;73523;55.740;13.276;2024-03-02T12:14:11;99969.59;;;23.69;32.20
83557;BME280;73523;55.740;13.276;2024-03-02T12:16:38;99969.34;;;23.70;32.20
83557;BME280;73523;55.740;13.276;2024-03-02T12:19:05;99967.38;;;23.71;31.72
83557;BME280;73523;55.740;13.276;2024-03-02T12:21:30;99971.00;;;23.72;31.75
83557;BME280;73523;55.740;13.276;2024-03-02T12:23:56;99963.78;;;23.70;31.89
83557;BME280;73523;55.740;13.276;2024-03-02T12:26:22;99962.13;;;23.69;31.90
83557;BME280;73523;55.740;13.276;2024-03-02T12:28:47;99964.63;;;23.71;32.05
83557;BME280;73523;55.740;13.276;2024-03-02T12:31:13;99972.66;;;23.73;31.71
83557;BME280;73523;55.740;13.276;2024-03-02T12:33:40;99968.78;;;23.74;31.75
83557;BME280;73523;55.740;13.276;2024-03-02T12:36:09;99965.19;;;23.73;31.72
83557;BME280;73523;55.740;13.276;2024-03-02T12:38:34;99969.88;;;23.73;31.79
83557;BME280;73523;55.740;13.276;2024-03-02T12:41:00;99963.50;;;23.72;31.77
83557;BME280;73523;55.740;13.276;2024-03-02T12:43:30;99964.34;;;23.73;32.17
83557;BME280;73523;55.740;13.276;2024-03-02T12:45:55;99967.09;;;23.73;32.03
83557;BME280;73523;55.740;13.276;2024-03-02T12:48:21;99966.00;;;23.74;31.96
83557;BME280;73523;55.740;13.276;2024-03-02T12:50:47;99967.09;;;23.73;31.76
83557;BME280;73523;55.740;13.276;2024-03-02T12:53:15;99959.63;;;23.73;31.80